Time;durP1;ratioP1;P1;durP2;ratioP2;P2;SDS_P1;SDS_P2;PMS_P1;PMS_P2;Temp;Humidity;BMP_temperature;BMP_pressure;BME280_temperature;BME280_humidity;BME280_pressure;Samples;Min_cycle;Max_cycle;Signal;HPM_P1;HPM_P2
2022/03/05 00:00:08;;;;;;;25.77;24.40;;;;;;;-0.89;99.50;102621.31;5031407;28;20450;-43
2022/03/05 00:02:37;;;;;;;24.40;23.40;;;;;;;-0.90;99.89;102624.88;5031217;28;20442;-42
2022/03/05 00:05:07;;;;;;;25.40;23.70;;;;;;;-0.92;99.58;102618.84;5031179;28;20953;-45
2022/03/05 00:07:34;;;;;;;25.03;23.83;;;;;;;-0.93;99.43;102619.78;5030848;28;20482;-45
2022/03/05 00:10:02;;;;;;;25.10;24.00;;;;;;;-0.95;99.45;102617.22;5031365;28;20436;-45
2022/03/05 00:12:30;;;;;;;25.93;24.07;;;;;;;-0.96;100.00;102618.16;5031196;28;20428;-42
2022/03/05 00:14:57;;;;;;;25.03;23.93;;;;;;;-0.97;99.85;102624.31;5031177;28;20898;-44
2022/03/05 00:17:25;;;;;;;24.73;23.63;;;;;;;-1.00;99.69;102619.25;5030434;28;20432;-46
2022/03/05 00:19:53;;;;;;;25.43;24.03;;;;;;;-0.99;99.75;102620.09;5031139;28;20439;-45
2022/03/05 00:22:22;;;;;;;27.43;25.80;;;;;;;-1.00;99.56;102626.25;5032102;28;20971;-42
2022/03/05 00:24:50;;;;;;;25.63;24.30;;;;;;;-1.01;99.75;102625.38;5034900;28;20454;-43
2022/03/05 00:27:18;;;;;;;24.97;23.77;;;;;;;-1.00;99.69;102624.47;5034297;28;20527;-45
2022/03/05 00:29:45;;;;;;;24.80;23.60;;;;;;;-1.02;99.29;102622.84;5034650;28;20533;-45
2022/03/05 00:32:13;;;;;;;26.20;24.60;;;;;;;-1.06;99.83;102618.69;5034676;28;20434;-46
2022/03/05 00:34:41;;;;;;;24.63;23.40;;;;;;;-1.08;99.42;102628.41;5034396;28;20475;-46
2022/03/05 00:37:10;;;;;;;24.73;23.63;;;;;;;-1.14;99.58;102632.16;5034105;28;20907;-51
2022/03/05 00:39:39;;;;;;;24.10;22.80;;;;;;;-1.16;99.77;102624.38;5034593;28;20465;-45
2022/03/05 00:42:07;;;;;;;25.40;24.27;;;;;;;-1.16;99.22;102618.28;5034551;28;20440;-43
2022/03/05 00:44:35;;;;;;;25.50;23.67;;;;;;;-1.18;99.41;102617.53;5034581;28;20456;-44
2022/03/05 00:47:04;;;;;;;25.63;24.43;;;;;;;-1.22;99.47;102623.81;5034013;28;20961;-42
2022/03/05 00:49:31;;;;;;;24.70;23.50;;;;;;;-1.28;98.90;102619.75;5034047;28;20448;-42
2022/03/05 00:51:59;;;;;;;23.60;22.70;;;;;;;-1.30;99.21;102618.97;5034212;28;20442;-47
2022/03/05 00:54:27;;;;;;;24.17;23.10;;;;;;;-1.30;98.90;102625.97;5034077;28;20492;-48
2022/03/05 00:56:56;;;;;;;24.73;23.70;;;;;;;-1.35;99.01;102623.59;5034218;28;20932;-44
2022/03/05 00:59:23;;;;;;;24.70;23.63;;;;;;;-1.39;98.86;102626.44;5033372;28;20513;-45
2022/03/05 01:01:51;;;;;;;25.07;23.70;;;;;;;-1.45;98.52;102630.19;5034428;28;20439;-46
2022/03/05 01:04:19;;;;;;;24.57;23.70;;;;;;;-1.44;98.97;102628.44;5034036;28;20452;-45
2022/03/05 01:06:46;;;;;;;25.87;24.73;;;;;;;-1.44;99.18;102621.44;5034200;28;20945;-43
2022/03/05 01:09:14;;;;;;;24.90;23.80;;;;;;;-1.40;99.16;102628.19;5033428;28;20474;-43
2022/03/05 01:11:42;;;;;;;26.13;25.13;;;;;;;-1.40;99.71;102622.97;5033866;28;20436;-44
2022/03/05 01:14:11;;;;;;;26.27;24.67;;;;;;;-1.40;99.65;102617.72;5033577;28;20546;-47
2022/03/05 01:16:38;;;;;;;26.43;25.03;;;;;;;-1.38;99.42;102621.13;5033958;28;20515;-42
2022/03/05 01:19:06;;;;;;;25.13;23.93;;;;;;;-1.39;99.07;102623.81;5033021;28;20843;-44
2022/03/05 01:21:34;;;;;;;25.33;24.33;;;;;;;-1.43;99.48;102620.47;5033725;28;20432;-44
2022/03/05 01:24:01;;;;;;;25.50;24.30;;;;;;;-1.46;99.08;102614.53;5033555;28;20561;-49
2022/03/05 01:26:30;;;;;;;26.07;24.67;;;;;;;-1.49;99.07;102614.72;5033414;28;20436;-46
2022/03/05 01:28:58;;;;;;;26.17;24.97;;;;;;;-1.49;99.46;102617.34;5032983;28;20831;-45
2022/03/05 01:31:26;;;;;;;26.13;24.70;;;;;;;-1.50;99.35;102621.72;5033612;28;20443;-44
2022/03/05 01:33:54;;;;;;;25.90;24.50;;;;;;;-1.50;99.62;102620.88;5033305;28;20467;-46
2022/03/05 01:36:22;;;;;;;26.57;25.47;;;;;;;-1.47;99.17;102607.63;5033396;28;20482;-45
2022/03/05 01:38:49;;;;;;;26.50;25.40;;;;;;;-1.49;99.78;102617.34;5032562;28;20460;-46
2022/03/05 01:41:17;;;;;;;25.40;24.30;;;;;;;-1.50;99.56;102611.25;5033494;28;20436;-45
2022/03/05 01:43:49;;;;;;;26.83;25.23;;;;;;;-1.52;99.71;102613.06;5033108;28;20456;-41
2022/03/05 01:46:32;;;;;;;24.23;23.03;;;;;;;-1.55;99.39;102618.47;5033246;28;20425;-44
2022/03/05 01:49:00;;;;;;;24.70;23.70;;;;;;;-1.53;99.61;102621.88;5032526;28;20498;-49
2022/03/05 01:51:28;;;;;;;25.50;24.30;;;;;;;-1.52;99.03;102620.09;5033021;28;20825;-45
2022/03/05 01:53:56;;;;;;;25.67;24.23;;;;;;;-1.51;99.06;102616.53;5033132;28;20483;-44
2022/03/05 01:56:26;;;;;;;24.90;23.70;;;;;;;-1.51;99.46;102617.41;5033082;28;20476;-42
2022/03/05 01:58:54;;;;;;;24.97;23.70;;;;;;;-1.53;99.35;102614.03;5032363;28;20464;-47
2022/03/05 02:01:24;;;;;;;25.00;24.00;;;;;;;-1.54;99.44;102614.06;5032990;28;20432;-44
2022/03/05 02:03:53;;;;;;;25.90;24.40;;;;;;;-1.53;99.06;102615.78;5032624;28;20983;-46
2022/03/05 02:06:22;;;;;;;24.60;23.50;;;;;;;-1.54;99.29;102614.06;5032851;28;20428;-43
2022/03/05 02:08:50;;;;;;;24.33;23.23;;;;;;;-1.56;98.99;102614.16;5032365;28;20849;-46
2022/03/05 02:11:17;;;;;;;24.07;23.07;;;;;;;-1.60;99.26;102616.97;5032682;28;20443;-45
2022/03/05 02:13:45;;;;;;;24.83;23.63;;;;;;;-1.64;99.10;102616.28;5032706;28;20547;-48
2022/03/05 02:16:13;;;;;;;24.83;23.73;;;;;;;-1.65;99.11;102604.13;5032494;28;20566;-48
2022/03/05 02:18:45;;;;;;;24.33;23.23;;;;;;;-1.67;98.80;102614.66;5032017;28;20460;-44
2022/03/05 02:21:15;;;;;;;23.80;22.70;;;;;;;-1.73;99.05;102612.34;5032605;28;20795;-46
2022/03/05 02:23:43;;;;;;;24.70;23.30;;;;;;;-1.77;98.71;102610.81;5032450;28;20574;-46
2022/03/05 02:26:11;;;;;;;25.30;23.60;;;;;;;-1.81;99.00;102605.78;5032489;28;20439;-45
2022/03/05 02:28:39;;;;;;;25.43;24.27;;;;;;;-1.86;98.94;102606.00;5031907;28;20474;-48
2022/03/05 02:31:07;;;;;;;24.50;23.40;;;;;;;-1.90;98.68;102598.34;5032301;28;20424;-48
2022/03/05 02:33:35;;;;;;;24.03;22.93;;;;;;;-1.95;98.84;102611.66;5032428;28;20456;-48
2022/03/05 02:36:05;;;;;;;24.47;23.47;;;;;;;-1.99;98.26;102611.84;5032353;28;20482;-44
2022/03/05 02:38:34;;;;;;;24.13;22.93;;;;;;;-2.01;98.83;102614.56;5031708;28;20552;-49
2022/03/05 02:41:02;;;;;;;24.07;22.90;;;;;;;-2.03;98.44;102615.53;5032161;28;20432;-47
2022/03/05 02:43:29;;;;;;;23.87;22.87;;;;;;;-2.07;98.61;102609.59;5031983;28;20810;-44
2022/03/05 02:45:57;;;;;;;24.50;23.00;;;;;;;-2.11;98.36;102605.41;5031304;28;20858;-44
2022/03/05 02:48:25;;;;;;;23.83;22.60;;;;;;;-2.15;98.26;102606.47;5031522;28;20460;-43
2022/03/05 02:50:53;;;;;;;23.00;21.90;;;;;;;-2.21;98.26;102604.13;5032217;28;20432;-45
2022/03/05 02:53:21;;;;;;;23.27;22.20;;;;;;;-2.23;98.37;102613.81;5031863;28;20459;-44
2022/03/05 02:55:50;;;;;;;22.90;21.90;;;;;;;-2.27;98.38;102617.50;5031816;28;20482;-43
2022/03/05 02:58:18;;;;;;;24.50;22.83;;;;;;;-2.32;98.38;102609.84;5031475;28;20472;-43
2022/03/05 03:00:45;;;;;;;23.50;22.40;;;;;;;-2.36;98.34;102615.31;5032149;28;20458;-46
2022/03/05 03:03:13;;;;;;;23.83;22.63;;;;;;;-2.41;97.82;102617.25;5031946;28;20502;-46
2022/03/05 03:05:41;;;;;;;22.50;21.60;;;;;;;-2.45;98.27;102619.16;5031931;28;20439;-46
2022/03/05 03:08:09;;;;;;;24.27;22.80;;;;;;;-2.49;98.02;102620.22;5031218;28;20470;-44
2022/03/05 03:10:36;;;;;;;23.23;22.23;;;;;;;-2.52;97.72;102619.50;5031721;28;20523;-45
2022/03/05 03:13:05;;;;;;;23.70;22.60;;;;;;;-2.58;97.82;102620.63;5031649;28;20462;-43
2022/03/05 03:15:33;;;;;;;23.03;22.03;;;;;;;-2.64;97.62;102623.50;5031605;28;20476;-44
2022/03/05 03:18:01;;;;;;;22.40;21.37;;;;;;;-2.70;97.57;102628.13;5031096;28;20551;-46
2022/03/05 03:20:29;;;;;;;22.20;21.27;;;;;;;-2.78;97.34;102626.69;5031717;28;20428;-48
2022/03/05 03:22:56;;;;;;;23.23;21.63;;;;;;;-2.83;97.67;102625.19;5031368;28;20865;-50
2022/03/05 03:25:24;;;;;;;22.40;21.33;;;;;;;-2.89;97.61;102634.13;5031911;28;20800;-43
2022/03/05 03:27:52;;;;;;;22.67;21.67;;;;;;;-2.93;97.55;102626.50;5030952;28;20474;-44
2022/03/05 03:30:21;;;;;;;22.13;21.33;;;;;;;-2.99;97.51;102617.16;5031836;28;20428;-45
2022/03/05 03:32:49;;;;;;;22.90;21.80;;;;;;;-3.01;97.42;102621.59;5031621;28;20464;-43
2022/03/05 03:35:17;;;;;;;22.00;21.20;;;;;;;-3.04;97.83;102621.72;5031549;28;20523;-48
2022/03/05 03:37:46;;;;;;;22.80;21.70;;;;;;;-3.06;97.48;102620.94;5030756;28;20501;-46
2022/03/05 03:40:16;;;;;;;22.20;21.20;;;;;;;-3.06;97.82;102622.69;5031429;28;20446;-45
2022/03/05 03:42:45;;;;;;;22.53;21.60;;;;;;;-3.11;97.83;102615.06;5031533;28;20759;-47
2022/03/05 03:45:14;;;;;;;23.07;22.07;;;;;;;-3.14;97.62;102614.34;5031383;28;20438;-45
2022/03/05 03:47:48;;;;;;;22.73;21.30;;;;;;;-3.20;97.71;102612.84;5030776;28;20467;-46
2022/03/05 03:50:17;;;;;;;22.90;21.73;;;;;;;-3.24;97.49;102615.63;5031419;28;20535;-45
2022/03/05 03:52:45;;;;;;;22.97;21.80;;;;;;;-3.27;97.65;102616.59;5031524;28;20466;-45
2022/03/05 03:55:15;;;;;;;22.60;21.60;;;;;;;-3.31;97.62;102614.16;5031477;28;20436;-47
2022/03/05 03:57:44;;;;;;;22.83;21.80;;;;;;;-3.34;97.67;102614.31;5032597;28;20467;-42
2022/03/05 04:00:14;;;;;;;22.63;21.27;;;;;;;-3.38;97.77;102610.97;5035285;28;20431;-43
2022/03/05 04:02:42;;;;;;;23.53;22.17;;;;;;;-3.43;97.63;102605.94;5035063;28;20523;-45
2022/03/05 04:05:12;;;;;;;22.23;21.37;;;;;;;-3.45;97.65;102610.38;5035290;28;20435;-48
2022/03/05 04:10:25;;;;;;;22.77;21.67;;;;;;;-3.51;97.53;102615.81;5035165;28;20519;-47
2022/03/05 04:12:53;;;;;;;23.17;22.17;;;;;;;-3.51;97.94;102607.16;5034792;28;20460;-43
2022/03/05 04:15:20;;;;;;;22.83;21.73;;;;;;;-3.51;98.12;102609.75;5035138;28;20523;-45
2022/03/05 04:17:50;;;;;;;23.10;21.70;;;;;;;-3.52;98.07;102613.25;5034125;28;20469;-46
2022/03/05 04:20:19;;;;;;;22.73;21.80;;;;;;;-3.53;98.12;102615.03;5034815;28;20432;-46
2022/03/05 04:22:47;;;;;;;22.20;21.20;;;;;;;-3.47;98.66;102613.94;5034725;28;21041;-42
2022/03/05 04:25:14;;;;;;;22.70;21.70;;;;;;;-3.44;98.56;102612.06;5034689;28;20933;-44
2022/03/05 04:27:42;;;;;;;23.33;22.40;;;;;;;-3.39;98.81;102617.94;5034102;28;20542;-43
2022/03/05 04:30:11;;;;;;;23.60;22.70;;;;;;;-3.32;99.04;102607.25;5034849;28;20439;-45
2022/03/05 04:32:39;;;;;;;23.57;22.50;;;;;;;-3.27;99.03;102614.00;5034834;28;20468;-48
2022/03/05 04:35:08;;;;;;;22.83;22.03;;;;;;;-3.24;98.91;102613.00;5034675;28;20432;-49
2022/03/05 04:37:37;;;;;;;23.83;22.97;;;;;;;-3.23;99.18;102607.75;5033900;28;20830;-45
2022/03/05 04:40:07;;;;;;;23.50;22.50;;;;;;;-3.18;99.15;102608.38;5034359;28;20443;-46
2022/03/05 04:42:34;;;;;;;23.40;22.30;;;;;;;-3.15;99.29;102613.50;5034494;28;20530;-46
2022/03/05 04:45:02;;;;;;;22.83;21.93;;;;;;;-3.13;99.11;102616.00;5034504;28;20439;-48
2022/03/05 04:47:30;;;;;;;22.00;21.20;;;;;;;-3.13;99.09;102613.41;5033617;28;20539;-46
2022/03/05 04:49:57;;;;;;;23.23;22.10;;;;;;;-3.14;98.67;102609.97;5034221;28;20438;-49
2022/03/05 04:52:25;;;;;;;23.50;22.30;;;;;;;-3.15;98.68;102617.84;5034186;28;20432;-50
2022/03/05 04:54:54;;;;;;;22.37;21.50;;;;;;;-3.16;98.94;102605.69;5034045;28;20934;-48
2022/03/05 04:57:21;;;;;;;22.37;21.47;;;;;;;-3.17;98.99;102617.94;5033667;28;20841;-43
2022/03/05 04:59:49;;;;;;;23.57;22.47;;;;;;;-3.18;98.98;102616.22;5034215;28;20524;-46
2022/03/05 05:02:17;;;;;;;23.40;21.93;;;;;;;-3.18;98.76;102604.94;5034159;28;20518;-46
2022/03/05 05:04:44;;;;;;;23.33;22.33;;;;;;;-3.20;98.89;102610.22;5033987;28;20506;-50
2022/03/05 05:07:12;;;;;;;22.50;21.70;;;;;;;-3.20;98.67;102619.81;5033412;28;20754;-42
2022/03/05 05:09:40;;;;;;;22.33;21.53;;;;;;;-3.21;98.87;102621.56;5033353;28;20432;-46
2022/03/05 05:12:10;;;;;;;22.00;21.20;;;;;;;-3.22;98.51;102619.00;5034042;28;21022;-47
2022/03/05 05:14:38;;;;;;;23.60;22.60;;;;;;;-3.26;98.40;102627.88;5033851;28;20547;-43
2022/03/05 05:17:06;;;;;;;22.30;21.20;;;;;;;-3.29;98.24;102628.88;5033842;28;20502;-46
2022/03/05 05:19:33;;;;;;;22.13;21.33;;;;;;;-3.32;98.31;102636.81;5033345;28;20444;-46
2022/03/05 05:22:04;;;;;;;23.00;22.00;;;;;;;-3.35;98.06;102631.72;5031751;28;20818;-42
2022/03/05 05:24:34;;;;;;;24.33;23.03;;;;;;;-3.39;98.22;102636.19;5030515;28;20468;-43
2022/03/05 05:27:03;;;;;;;23.03;22.03;;;;;;;-3.41;98.39;102639.78;5033420;28;20462;-46
2022/03/05 05:29:33;;;;;;;24.97;23.70;;;;;;;-3.47;98.07;102635.66;5032748;28;20540;-43
2022/03/05 05:32:10;;;;;;;22.63;21.73;;;;;;;-3.48;97.99;102638.31;5030056;28;20452;-45
2022/03/05 05:34:38;;;;;;;22.97;22.07;;;;;;;-3.51;98.21;102646.25;5033368;28;20803;-46
2022/03/05 05:37:13;;;;;;;22.17;21.20;;;;;;;-3.55;97.88;102642.06;5032650;28;20475;-44
2022/03/05 05:39:41;;;;;;;22.70;21.90;;;;;;;-3.56;97.88;102645.59;5033240;28;20523;-43
2022/03/05 05:42:08;;;;;;;22.37;21.47;;;;;;;-3.58;98.21;102637.81;5033181;28;20443;-46
2022/03/05 05:44:37;;;;;;;23.03;22.23;;;;;;;-3.59;98.22;102645.72;5032977;28;20805;-49
2022/03/05 05:47:06;;;;;;;24.20;23.17;;;;;;;-3.58;98.27;102650.88;5031519;28;20441;-45
2022/03/05 05:49:35;;;;;;;23.03;22.20;;;;;;;-3.55;98.27;102655.97;5032866;28;20527;-48
2022/03/05 05:52:05;;;;;;;23.70;22.60;;;;;;;-3.54;98.26;102641.16;5032860;28;20440;-45
2022/03/05 05:54:33;;;;;;;24.83;23.30;;;;;;;-3.50;98.48;102642.75;5032053;28;20452;-47
2022/03/05 05:57:01;;;;;;;23.87;22.77;;;;;;;-3.48;98.50;102647.00;5032640;28;20878;-47
2022/03/05 05:59:28;;;;;;;23.57;22.40;;;;;;;-3.44;98.39;102645.13;5032049;28;20552;-48
2022/03/05 06:01:58;;;;;;;23.10;22.10;;;;;;;-3.39;98.80;102651.00;5032097;28;20527;-49
2022/03/05 06:04:26;;;;;;;23.57;22.57;;;;;;;-3.32;98.85;102656.81;5032643;28;20464;-49
2022/03/05 06:06:54;;;;;;;23.00;22.00;;;;;;;-3.25;98.59;102648.69;5032798;28;20425;-46
2022/03/05 06:09:23;;;;;;;22.87;21.90;;;;;;;-3.17;99.03;102653.59;5031873;28;20460;-48
2022/03/05 06:11:50;;;;;;;23.23;22.30;;;;;;;-3.07;99.05;102652.28;5032301;28;20436;-46
2022/03/05 06:14:18;;;;;;;21.80;20.90;;;;;;;-2.96;99.41;102650.97;5032467;28;21057;-48
2022/03/05 06:16:47;;;;;;;23.47;22.33;;;;;;;-2.81;99.67;102655.53;5031534;28;20523;-46
2022/03/05 06:19:16;;;;;;;22.73;21.60;;;;;;;-2.70;99.72;102654.22;5023714;28;20510;-50
2022/03/05 06:21:43;;;;;;;22.60;21.37;;;;;;;-2.59;99.35;102660.69;5031846;28;20917;-50
2022/03/05 06:24:11;;;;;;;22.87;21.57;;;;;;;-2.45;99.32;102652.28;5029128;28;20514;-47
2022/03/05 06:26:39;;;;;;;26.37;24.30;;;;;;;-2.37;99.69;102664.09;5029461;28;20428;-43
2022/03/05 06:29:06;;;;;;;25.43;23.80;;;;;;;-2.24;99.48;102653.97;5029632;28;20460;-46
2022/03/05 06:31:34;;;;;;;23.73;22.63;;;;;;;-2.12;99.57;102663.84;5030822;28;20519;-46
2022/03/05 06:34:02;;;;;;;23.50;22.30;;;;;;;-2.01;99.61;102653.75;5030194;28;20844;-45
2022/03/05 06:36:31;;;;;;;23.30;22.20;;;;;;;-1.85;99.50;102649.50;5031019;28;20436;-50
2022/03/05 06:38:58;;;;;;;25.70;24.30;;;;;;;-1.60;99.32;102646.63;5029698;28;20468;-47
2022/03/05 06:41:26;;;;;;;27.03;25.27;;;;;;;-1.35;99.27;102643.69;5031202;28;20885;-48
2022/03/05 06:43:53;;;;;;;24.23;23.13;;;;;;;-1.13;99.73;102641.69;5030195;28;20456;-48
2022/03/05 06:46:21;;;;;;;25.30;24.10;;;;;;;-0.95;99.86;102651.28;5030398;28;20433;-45
2022/03/05 06:48:49;;;;;;;25.47;24.20;;;;;;;-0.76;100.00;102648.59;5029885;28;20862;-47
2022/03/05 06:51:17;;;;;;;24.00;22.83;;;;;;;-0.61;99.74;102642.56;5030591;28;20926;-47
2022/03/05 06:53:46;;;;;;;25.70;24.20;;;;;;;-0.43;99.23;102646.88;5030266;28;20455;-47
2022/03/05 06:56:13;;;;;;;24.37;23.30;;;;;;;-0.26;100.00;102657.31;5029838;28;20432;-45
2022/03/05 06:58:41;;;;;;;23.87;22.53;;;;;;;-0.12;99.37;102646.94;5029605;28;21003;-50
2022/03/05 07:01:08;;;;;;;23.60;22.57;;;;;;;0.02;99.38;102656.69;5030482;28;20436;-48
2022/03/05 07:03:36;;;;;;;23.43;22.37;;;;;;;0.24;99.77;102659.84;5030077;28;20460;-52
2022/03/05 07:06:05;;;;;;;24.13;22.87;;;;;;;0.38;99.43;102659.09;5029021;28;20450;-52
2022/03/05 07:08:32;;;;;;;23.57;22.50;;;;;;;0.51;99.36;102657.47;5028455;28;20490;-46
2022/03/05 07:11:02;;;;;;;24.20;23.00;;;;;;;0.62;99.16;102662.16;5029873;28;20788;-47
2022/03/05 07:13:30;;;;;;;23.83;22.63;;;;;;;0.69;99.18;102668.75;5028848;28;21052;-44
2022/03/05 07:15:57;;;;;;;24.20;23.10;;;;;;;0.77;98.43;102663.91;5029349;28;20467;-47
2022/03/05 07:18:25;;;;;;;24.93;23.50;;;;;;;0.93;98.83;102664.72;5028278;28;20507;-48
2022/03/05 07:20:52;;;;;;;24.07;22.60;;;;;;;1.14;98.56;102663.47;5029697;28;20922;-48
2022/03/05 07:23:20;;;;;;;27.47;25.93;;;;;;;1.35;97.94;102667.47;5029344;28;20854;-45
2022/03/05 07:25:48;;;;;;;25.83;24.53;;;;;;;1.59;97.60;102663.41;5028623;28;20468;-46
2022/03/05 07:28:17;;;;;;;25.90;24.80;;;;;;;1.84;97.08;102665.41;5028770;28;20579;-50
2022/03/05 07:30:44;;;;;;;24.30;22.97;;;;;;;2.11;97.41;102668.13;5029904;28;20562;-45
2022/03/05 07:33:14;;;;;;;25.83;24.23;;;;;;;2.36;96.66;102665.63;5033568;28;20470;-50
2022/03/05 07:35:41;;;;;;;24.97;23.80;;;;;;;2.60;95.47;102665.84;5033030;28;20436;-49
2022/03/05 07:38:09;;;;;;;23.93;22.77;;;;;;;2.90;95.16;102661.22;5032546;28;20482;-47
2022/03/05 07:40:37;;;;;;;22.33;21.53;;;;;;;3.21;91.79;102660.91;5033289;28;20438;-47
2022/03/05 07:43:04;;;;;;;23.00;21.87;;;;;;;3.54;87.01;102662.22;5033346;28;20987;-50
2022/03/05 07:45:34;;;;;;;21.97;21.07;;;;;;;3.76;78.34;102655.34;5032800;28;20424;-50
2022/03/05 07:48:01;;;;;;;22.17;21.27;;;;;;;4.02;78.84;102660.63;5032315;28;20555;-49
2022/03/05 07:50:29;;;;;;;20.80;19.90;;;;;;;4.12;77.48;102666.97;5033197;28;20438;-47
2022/03/05 07:52:57;;;;;;;19.93;19.13;;;;;;;4.06;74.91;102664.75;5032979;28;20456;-50
2022/03/05 07:55:24;;;;;;;20.90;19.90;;;;;;;3.96;74.24;102671.59;5033130;28;20793;-50
2022/03/05 07:57:52;;;;;;;20.60;19.80;;;;;;;3.80;73.79;102666.53;5031513;28;20475;-49
2022/03/05 08:00:20;;;;;;;24.37;22.90;;;;;;;3.81;75.18;102665.59;5029729;28;20794;-47
2022/03/05 08:02:51;;;;;;;22.40;21.27;;;;;;;3.59;74.71;102668.88;5031378;28;20992;-50
2022/03/05 08:05:19;;;;;;;23.00;21.90;;;;;;;3.58;75.11;102672.47;5029453;28;20424;-49
2022/03/05 08:07:47;;;;;;;22.40;21.10;;;;;;;3.48;75.67;102665.28;5031089;28;20463;-53
2022/03/05 08:10:15;;;;;;;22.30;21.00;;;;;;;3.40;76.23;102665.81;5032710;28;20612;-48
2022/03/05 08:12:43;;;;;;;23.20;22.13;;;;;;;3.32;76.17;102676.84;5032099;28;21156;-49
2022/03/05 08:15:11;;;;;;;22.57;21.47;;;;;;;3.25;77.11;102664.19;5030407;28;20431;-47
2022/03/05 08:17:50;;;;;;;22.73;21.47;;;;;;;3.40;78.08;102681.63;5031223;28;20467;-48
2022/03/05 08:20:19;;;;;;;22.83;21.17;;;;;;;3.48;78.22;102666.13;5032163;28;20428;-46
2022/03/05 08:22:46;;;;;;;22.80;21.60;;;;;;;3.55;78.30;102677.09;5032089;28;20448;-49
2022/03/05 08:25:15;;;;;;;21.80;20.70;;;;;;;3.61;78.35;102672.25;5031731;28;20424;-45
2022/03/05 08:27:43;;;;;;;22.23;21.13;;;;;;;3.57;76.91;102677.84;5031702;28;20549;-51
2022/03/05 08:30:12;;;;;;;22.93;21.93;;;;;;;3.70;78.02;102674.25;5032461;28;20863;-50
2022/03/05 08:32:39;;;;;;;22.87;21.67;;;;;;;3.81;78.11;102682.28;5032534;28;20435;-49
2022/03/05 08:35:10;;;;;;;23.40;22.13;;;;;;;3.87;76.77;102681.88;5031664;28;20424;-48
2022/03/05 08:37:41;;;;;;;21.33;20.53;;;;;;;3.93;76.27;102677.94;5030883;28;20459;-48
2022/03/05 08:40:12;;;;;;;20.60;19.80;;;;;;;3.90;75.38;102675.53;5032148;28;20874;-48
2022/03/05 08:42:40;;;;;;;20.63;19.73;;;;;;;3.86;74.66;102671.41;5031319;28;20442;-48
2022/03/05 08:45:09;;;;;;;21.80;20.47;;;;;;;3.91;74.20;102675.41;5031588;28;20443;-48
2022/03/05 08:47:36;;;;;;;20.73;19.90;;;;;;;3.90;73.89;102679.00;5031135;28;20459;-49
2022/03/05 08:50:05;;;;;;;21.20;20.30;;;;;;;4.00;74.62;102676.59;5032321;28;20523;-50
2022/03/05 08:52:36;;;;;;;22.63;21.00;;;;;;;4.03;73.70;102680.81;5032115;28;20436;-48
2022/03/05 08:55:06;;;;;;;21.23;20.10;;;;;;;4.28;75.11;102678.09;5031877;28;20989;-50
2022/03/05 08:57:34;;;;;;;21.80;20.70;;;;;;;4.46;74.99;102675.00;5031511;28;20452;-48
2022/03/05 09:00:01;;;;;;;21.17;20.20;;;;;;;4.55;73.20;102673.50;5032171;28;20845;-48
2022/03/05 09:02:30;;;;;;;19.93;19.23;;;;;;;4.48;70.50;102674.88;5032022;28;20428;-47
2022/03/05 09:04:58;;;;;;;20.90;19.87;;;;;;;4.58;70.69;102681.19;5031292;28;20440;-49
2022/03/05 09:07:26;;;;;;;20.53;19.73;;;;;;;4.64;70.70;102683.41;5030853;28;20822;-46
2022/03/05 09:09:55;;;;;;;19.87;18.90;;;;;;;4.69;70.05;102686.53;5031445;28;20524;-49
2022/03/05 09:12:22;;;;;;;19.33;18.17;;;;;;;4.80;69.15;102683.13;5031519;28;20527;-47
2022/03/05 09:14:50;;;;;;;21.53;20.37;;;;;;;5.00;69.20;102683.34;5031020;28;21057;-46
2022/03/05 09:17:18;;;;;;;22.10;21.20;;;;;;;5.17;69.57;102681.28;5030428;28;20462;-49
2022/03/05 09:19:45;;;;;;;21.67;20.60;;;;;;;5.13;67.27;102685.94;5031592;28;20471;-49
2022/03/05 09:22:13;;;;;;;22.47;21.30;;;;;;;4.96;67.29;102679.25;5031902;28;20440;-48
2022/03/05 09:24:41;;;;;;;18.90;18.10;;;;;;;5.27;68.00;102675.16;5031094;28;20546;-46
2022/03/05 09:27:10;;;;;;;15.90;15.13;;;;;;;5.42;67.35;102678.47;5030470;28;20519;-45
2022/03/05 09:29:38;;;;;;;12.00;11.50;;;;;;;5.51;65.32;102675.97;5031217;28;20428;-46
2022/03/05 09:32:08;;;;;;;11.80;11.43;;;;;;;5.37;64.64;102680.63;5029429;28;20535;-48
2022/03/05 09:34:36;;;;;;;11.03;10.63;;;;;;;5.44;64.51;102679.19;5029898;28;20460;-46
2022/03/05 09:37:04;;;;;;;11.03;10.23;;;;;;;5.43;64.74;102677.50;5031107;28;20454;-44
2022/03/05 09:39:32;;;;;;;9.33;8.83;;;;;;;5.52;63.28;102669.72;5031164;28;20486;-46
2022/03/05 09:42:00;;;;;;;8.67;8.30;;;;;;;5.25;62.75;102674.44;5032078;28;20894;-49
2022/03/05 09:44:29;;;;;;;8.97;8.40;;;;;;;5.08;63.89;102666.91;5031240;28;20570;-47
2022/03/05 09:46:57;;;;;;;8.30;8.00;;;;;;;4.96;62.70;102670.47;5031639;28;20837;-50
2022/03/05 09:49:28;;;;;;;8.13;7.67;;;;;;;4.69;61.56;102667.22;5030878;28;20457;-46
2022/03/05 09:51:55;;;;;;;9.23;6.90;;;;;;;4.66;63.21;102662.97;5031832;28;20948;-45
2022/03/05 09:54:23;;;;;;;6.47;6.17;;;;;;;4.53;63.29;102669.28;5031359;28;20460;-47
2022/03/05 09:56:51;;;;;;;8.03;7.33;;;;;;;4.60;64.06;102665.25;5031574;28;20518;-45
2022/03/05 09:59:18;;;;;;;7.60;7.00;;;;;;;4.59;63.20;102668.84;5030399;28;20507;-50
2022/03/05 10:01:47;;;;;;;6.80;6.23;;;;;;;4.80;64.22;102673.41;5031593;28;20466;-46
2022/03/05 10:04:19;;;;;;;6.40;6.00;;;;;;;5.37;64.33;102670.03;5030735;28;20459;-43
2022/03/05 10:07:06;;;;;;;4.80;4.27;;;;;;;5.47;60.91;102669.22;5030842;28;20439;-51
2022/03/05 10:09:35;;;;;;;5.67;5.17;;;;;;;5.46;57.90;102667.53;5029865;28;20445;-46
2022/03/05 10:12:26;;;;;;;6.30;6.00;;;;;;;5.39;59.62;102663.66;5031062;28;20442;-50
2022/03/05 10:15:09;;;;;;;4.53;4.33;;;;;;;5.59;58.63;102662.97;5027833;28;20458;-45
2022/03/05 10:17:49;;;;;;;4.77;4.47;;;;;;;5.79;58.89;102660.63;5029763;28;20466;-48
2022/03/05 10:20:17;;;;;;;5.70;5.20;;;;;;;5.78;57.48;102661.56;5030445;28;20472;-48
2022/03/05 10:22:57;;;;;;;5.10;4.80;;;;;;;5.59;59.10;102667.44;5030864;28;20440;-47
2022/03/05 10:25:36;;;;;;;5.67;5.17;;;;;;;5.96;58.50;102657.53;5029845;28;20486;-47
2022/03/05 10:28:10;;;;;;;5.43;5.13;;;;;;;5.91;55.59;102649.91;5028610;28;20468;-48
2022/03/05 10:30:39;;;;;;;6.17;5.73;;;;;;;5.90;55.45;102655.34;5029625;28;20527;-50
2022/03/05 10:33:09;;;;;;;5.20;4.53;;;;;;;6.08;56.05;102656.56;5029997;28;20464;-46
2022/03/05 10:35:37;;;;;;;6.63;6.00;;;;;;;6.32;56.38;102649.31;5029755;28;20440;-48
2022/03/05 10:38:05;;;;;;;5.57;5.17;;;;;;;6.34;56.57;102655.31;5028639;28;20502;-46
2022/03/05 10:40:34;;;;;;;5.63;5.30;;;;;;;5.89;55.28;102643.91;5028104;28;21190;-49
2022/03/05 10:43:05;;;;;;;8.10;7.50;;;;;;;5.51;56.00;102661.88;5027601;28;21018;-49
2022/03/05 10:45:48;;;;;;;7.50;7.00;;;;;;;5.45;56.67;102665.84;5029493;28;20416;-48
2022/03/05 10:48:40;;;;;;;6.90;6.40;;;;;;;5.40;56.92;102659.22;5028166;28;20470;-47
2022/03/05 10:51:13;;;;;;;6.83;6.50;;;;;;;5.40;57.57;102659.22;5028747;28;20467;-47
2022/03/05 10:53:46;;;;;;;7.13;6.70;;;;;;;5.47;57.03;102665.72;5028786;28;20451;-50
2022/03/05 10:56:25;;;;;;;8.17;7.57;;;;;;;6.06;55.63;102658.50;5026332;28;20997;-49
2022/03/05 10:59:06;;;;;;;6.07;5.07;;;;;;;6.12;54.23;102664.13;5028360;28;20547;-45
2022/03/05 11:01:34;;;;;;;4.90;4.70;;;;;;;6.17;52.98;102660.28;5023706;28;20550;-47
2022/03/05 11:04:04;;;;;;;6.60;6.20;;;;;;;6.31;55.36;102655.56;5029199;28;21036;-47
2022/03/05 11:06:36;;;;;;;5.53;5.33;;;;;;;6.22;55.65;102652.81;5028502;28;21010;-49
2022/03/05 11:09:04;;;;;;;5.50;4.40;;;;;;;6.27;54.83;102650.66;5028195;28;20543;-44
2022/03/05 11:11:32;;;;;;;7.03;6.40;;;;;;;6.13;54.83;102643.78;5028913;28;20432;-46
2022/03/05 11:14:01;;;;;;;5.17;4.97;;;;;;;5.98;53.49;102650.28;5028695;28;20551;-46
2022/03/05 11:16:30;;;;;;;8.30;7.60;;;;;;;6.07;55.83;102645.13;5028099;28;20432;-45
2022/03/05 11:18:58;;;;;;;9.80;8.90;;;;;;;6.22;56.14;102639.56;5028160;28;21058;-47
2022/03/05 11:21:28;;;;;;;4.57;4.27;;;;;;;6.52;54.25;102645.06;5028956;28;20475;-48
2022/03/05 11:23:57;;;;;;;7.13;5.70;;;;;;;6.71;52.32;102644.41;5028489;28;20468;-50